N5AET-1 Weather Reports


Display with metric or nautical units.
time (UTC)temp
F
wind
direction
speed
MPH
gust
MPH
rain 1hr
in
rain 24hr
in
rain mn
in
humidity
%
barometer
mb
20200226192515 44 269 10.0 18.0 0.00 0.00 0.00 45 1034.7
20200226191515 44 334 5.0 12.0 0.00 0.00 0.00 46 1034.8
20200226190515 43 319 4.0 13.0 0.00 0.00 0.00 47 1034.8
20200226185515 44 317 5.0 15.0 0.00 0.00 0.00 45 1034.9
20200226184515 43 324 7.0 16.0 0.00 0.00 0.00 48 1034.9
20200226183514 43 293 10.0 20.0 0.00 0.00 0.00 47 1035.1
20200226182515 43 295 4.0 14.0 0.00 0.00 0.00 49 1035.0
20200226181515 43 305 10.0 20.0 0.00 0.00 0.00 46 1034.9
20200226180515 42 341 8.0 17.0 0.00 0.00 0.00 50 1035.1
20200226175515 42 327 7.0 13.0 0.00 0.00 0.00 49 1035.0
20200226174515 42 321 7.0 16.0 0.00 0.00 0.00 47 1035.2
20200226173515 42 321 7.0 13.0 0.00 0.00 0.00 49 1035.1
20200226172515 42 319 9.0 15.0 0.00 0.00 0.00 50 1035.1
20200226171515 41 299 8.0 21.0 0.00 0.00 0.00 52 1035.3
20200226170515 42 303 7.0 13.0 0.00 0.00 0.00 54 1035.4
20200226165515 42 323 4.0 13.0 0.00 0.00 0.00 54 1035.2
20200226164515 41 321 6.0 17.0 0.00 0.00 0.00 56 1035.2
20200226163515 40 340 7.0 16.0 0.00 0.00 0.00 55 1035.1
20200226162515 40 320 8.0 16.0 0.00 0.00 0.00 56 1035.2
20200226161516 39 346 10.0 17.0 0.00 0.00 0.00 59 1035.3
20200226160515 38 341 7.0 18.0 0.00 0.00 0.00 62 1035.2
20200226155515 38 308 5.0 10.0 0.00 0.00 0.00 63 1035.3
20200226154517 38 350 3.0 8.0 0.00 0.00 0.00 63 1035.2
20200226153517 38 308 9.0 19.0 0.00 0.00 0.00 62 1034.8
20200226152517 38 314 3.0 8.0 0.00 0.00 0.00 64 1034.6
20200226151518 38 327 10.0 18.0 0.00 0.00 0.00 63 1034.7
20200226150516 38 326 5.0 21.0 0.00 0.00 0.00 64 1034.5
20200226145517 38 334 8.0 16.0 0.00 0.00 0.00 65 1034.3
20200226144517 38 339 4.0 18.0 0.00 0.00 0.00 65 1034.1
20200226143516 38 330 9.0 19.0 0.00 0.00 0.00 68 1034.1
20200226142517 38 336 5.0 10.0 0.00 0.00 0.00 71 1034.1
20200226141517 37 331 10.0 17.0 0.00 0.00 0.00 70 1033.9
20200226140517 38 339 4.0 12.0 0.00 0.00 0.00 70 1033.8
20200226135517 37 334 6.0 18.0 0.00 0.00 0.00 70 1033.6
20200226134517 37 336 7.0 14.0 0.00 0.00 0.00 70 1033.1
20200226133519 37 336 10.0 17.0 0.00 0.00 0.00 70 1033.0
20200226132517 38 327 7.0 22.0 0.00 0.00 0.00 74 1032.5
20200226131517 38 343 7.0 15.0 0.00 0.00 0.00 77 1032.2
20200226130517 38 336 10.0 20.0 0.00 0.00 0.00 77 1032.0
20200226125517 38 321 7.0 15.0 0.00 0.00 0.00 80 1031.6
20200226124516 38 315 5.0 12.0 0.00 0.00 0.00 81 1031.6
20200226123517 38 333 6.0 17.0 0.00 0.00 0.00 81 1031.6
20200226122517 38 324 1.0 9.0 0.00 0.00 0.00 81 1031.4
20200226121517 39 341 6.0 13.0 0.00 0.00 0.00 80 1031.1
20200226120517 38 340 5.0 9.0 0.00 0.00 0.00 81 1031.0
20200226115517 39 325 3.0 8.0 0.00 0.00 0.00 81 1030.7
20200226114517 39 322 6.0 15.0 0.00 0.00 0.00 80 1030.5
20200226113517 39 330 6.0 16.0 0.00 0.00 0.00 78 1030.2
20200226112517 39 348 12.0 21.0 0.00 0.00 0.00 78 1029.9
20200226111517 39 322 10.0 22.0 0.00 0.00 0.00 78 1029.7
20200226110517 40 331 6.0 15.0 0.00 0.00 0.00 77 1029.5
20200226105517 40 312 2.0 9.0 0.00 0.00 0.00 77 1029.3
20200226104517 39 320 7.0 17.0 0.00 0.00 0.00 78 1029.0
20200226103517 40 316 6.0 11.0 0.00 0.00 0.00 78 1028.9
20200226102517 40 319 4.0 13.0 0.00 0.00 0.00 78 1028.8
20200226101517 39 319 5.0 13.0 0.00 0.00 0.00 79 1028.6
20200226100517 39 318 9.0 16.0 0.00 0.00 0.00 79 1028.5
20200226095517 40 327 6.0 20.0 0.00 0.00 0.00 79 1028.2
20200226094517 40 314 8.0 16.0 0.00 0.00 0.00 78 1028.1
20200226093516 40 325 6.0 10.0 0.00 0.00 0.00 79 1028.0
20200226092517 39 310 5.0 16.0 0.00 0.00 0.00 79 1027.8
20200226091517 40 321 2.0 14.0 0.00 0.00 0.00 79 1027.8
20200226090517 40 294 4.0 15.0 0.00 0.00 0.00 78 1027.7
20200226085517 40 303 5.0 9.0 0.00 0.00 0.00 77 1027.7
20200226084517 40 308 6.0 19.0 0.00 0.00 0.00 76 1027.8
20200226083517 40 311 7.0 22.0 0.00 0.00 0.00 75 1027.8
20200226082517 41 327 3.0 15.0 0.00 0.00 0.00 73 1027.7
20200226081517 40 303 4.0 13.0 0.00 0.00 0.00 73 1027.6
20200226080516 40 315 4.0 8.0 0.00 0.00 0.00 71 1027.6
20200226075617 40 301 8.0 18.0 0.00 0.00 0.00 70 1027.5
20200226074617 40 301 6.0 12.0 0.00 0.00 0.00 70 1027.6
20200226073617 40 281 3.0 9.0 0.00 0.00 0.00 70 1027.5
20200226072617 40 288 5.0 10.0 0.00 0.00 0.00 70 1027.5
20200226071617 40 303 2.0 9.0 0.00 0.00 0.00 69 1027.4
20200226070617 40 285 4.0 8.0 0.00 0.00 0.00 69 1027.4
20200226065617 40 306 8.0 12.0 0.00 0.00 0.00 68 1027.5
20200226064617 40 305 4.0 10.0 0.00 0.00 0.00 67 1027.4
20200226063617 41 327 5.0 12.0 0.00 0.00 0.00 66 1027.3
20200226062616 42 312 5.0 14.0 0.00 0.00 0.00 63 1027.4
20200226061617 41 297 1.0 9.0 0.00 0.00 0.00 63 1027.4
20200226060617 42 293 0.0 8.0 0.00 0.00 0.00 60 1027.3
20200226055615 42 298 4.0 13.0 0.00 0.00 0.00 56 1027.3
20200226054616 43 302 7.0 15.0 0.00 0.00 0.00 53 1027.3
20200226053615 44 305 7.0 17.0 0.00 0.00 0.00 51 1026.9
20200226052615 44 320 4.0 10.0 0.00 0.00 0.00 49 1026.7
20200226051615 45 245 1.0 7.0 0.00 0.00 0.00 49 1026.6
20200226050615 45 298 4.0 9.0 0.00 0.00 0.00 48 1026.5
20200226045615 46 302 1.0 7.0 0.00 0.00 0.00 47 1026.3
20200226044615 46 302 4.0 10.0 0.00 0.00 0.00 47 1026.2
20200226043615 46 312 5.0 10.0 0.00 0.00 0.00 47 1025.7
20200226042615 46 326 0.0 5.0 0.00 0.00 0.00 46 1025.7
20200226041615 47 316 4.0 10.0 0.00 0.00 0.00 45 1025.3
20200226040615 47 343 1.0 7.0 0.00 0.00 0.00 45 1025.1
20200226035615 47 313 2.0 7.0 0.00 0.00 0.00 46 1025.0
20200226034615 47 266 3.0 7.0 0.00 0.00 0.00 46 1025.1
20200226033615 48 312 5.0 9.0 0.00 0.00 0.00 45 1024.8
20200226032615 48 322 2.0 9.0 0.00 0.00 0.00 44 1024.4
20200226031615 49 303 5.0 16.0 0.00 0.00 0.00 43 1024.4
20200226030617 49 319 5.0 11.0 0.00 0.00 0.00 43 1024.5
20200226025616 49 309 9.0 16.0 0.00 0.00 0.00 42 1024.6
20200226024615 50 305 9.0 16.0 0.00 0.00 0.00 41 1024.5
20200226023617 50 282 4.0 11.0 0.00 0.00 0.00 41 1024.7
20200226022615 51 325 8.0 18.0 0.00 0.00 0.00 41 1024.6
20200226021615 51 306 4.0 10.0 0.00 0.00 0.00 41 1024.4
20200226020616 52 319 6.0 12.0 0.00 0.00 0.00 41 1023.7
20200226015615 52 291 2.0 9.0 0.00 0.00 0.00 42 1023.6
20200226014615 52 326 4.0 8.0 0.00 0.00 0.00 41 1023.2
20200226013615 53 307 6.0 12.0 0.00 0.00 0.00 40 1022.9
20200226012615 53 291 6.0 16.0 0.00 0.00 0.00 41 1022.7
20200226011615 53 310 4.0 10.0 0.00 0.00 0.00 41 1022.5
20200226010615 53 322 3.0 9.0 0.00 0.00 0.00 41 1022.4
20200226005615 54 308 7.0 14.0 0.00 0.00 0.00 41 1022.2
20200226004615 54 297 6.0 12.0 0.00 0.00 0.00 41 1022.0
20200226003615 54 291 5.0 13.0 0.00 0.00 0.00 40 1021.7
20200226002615 54 315 5.0 13.0 0.00 0.00 0.00 40 1021.4
20200226001615 55 310 3.0 9.0 0.00 0.00 0.00 40 1021.1
20200226000617 55 308 6.0 12.0 0.00 0.00 0.00 40 1020.9
20200225235615 55 308 8.0 14.0 0.00 0.00 0.00 39 1020.7
20200225234615 56 296 3.0 11.0 0.00 0.00 0.00 38 1020.5
20200225233615 56 327 4.0 13.0 0.00 0.00 0.00 39 1020.3
20200225232615 56 305 2.0 10.0 0.00 0.00 0.00 38 1020.3
20200225231615 56 304 8.0 17.0 0.00 0.00 0.00 38 1020.2
20200225230615 57 304 7.0 12.0 0.00 0.00 0.00 37 1020.0
20200225225615 58 281 2.0 6.0 0.00 0.00 0.00 36 1020.0
20200225224615 58 317 4.0 10.0 0.00 0.00 0.00 36 1019.8
20200225223615 58 327 7.0 11.0 0.00 0.00 0.00 36 1019.8
20200225222615 58 326 8.0 14.0 0.00 0.00 0.00 36 1019.7
20200225221615 57 306 8.0 15.0 0.00 0.00 0.00 37 1019.5
20200225220615 57 296 7.0 12.0 0.00 0.00 0.00 38 1019.5
20200225215615 57 340 6.0 13.0 0.00 0.00 0.00 37 1019.4
20200225214615 58 309 6.0 18.0 0.00 0.00 0.00 39 1019.3
20200225213615 58 310 1.0 5.0 0.00 0.00 0.00 41 1019.2
20200225212615 57 338 3.0 9.0 0.00 0.00 0.00 44 1019.1
20200225211615 57 312 7.0 13.0 0.00 0.00 0.00 45 1019.2
20200225210615 57 274 8.0 15.0 0.00 0.00 0.00 47 1019.2
20200225205615 57 291 6.0 13.0 0.00 0.00 0.00 49 1019.2
20200225204615 57 352 1.0 5.0 0.00 0.00 0.00 52 1019.1
20200225203615 57 299 8.0 14.0 0.00 0.00 0.00 52 1019.2
20200225202615 56 294 6.0 12.0 0.00 0.00 0.00 55 1019.2
20200225201615 56 322 5.0 10.0 0.00 0.00 0.00 56 1019.3
20200225200615 56 301 3.0 8.0 0.00 0.00 0.00 56 1019.3
20200225195615 56 298 5.0 12.0 0.00 0.00 0.00 58 1019.3
20200225194615 56 264 6.0 14.0 0.00 0.00 0.00 57 1019.4
20200225193616 57 334 2.0 9.0 0.00 0.00 0.00 58 1019.5